createdAt,value
2023-04-27T00:02:22.971Z,3.90
2023-04-27T00:04:53.267Z,3.90
2023-04-27T00:07:26.601Z,3.80
2023-04-27T00:09:53.468Z,3.80
2023-04-27T00:12:22.765Z,3.80
2023-04-27T00:14:49.696Z,3.80
2023-04-27T00:17:17.728Z,3.70
2023-04-27T00:19:48.527Z,3.70
2023-04-27T00:22:15.991Z,3.70
2023-04-27T00:24:42.702Z,3.60
2023-04-27T00:27:13.425Z,3.60
2023-04-27T00:29:43.892Z,3.60
2023-04-27T00:32:11.629Z,3.50
2023-04-27T00:34:38.775Z,3.50
2023-04-27T00:37:05.698Z,3.50
2023-04-27T00:39:35.105Z,3.40
2023-04-27T00:42:02.070Z,3.40
2023-04-27T00:44:31.045Z,3.40
2023-04-27T00:46:59.014Z,3.40
2023-04-27T00:49:27.145Z,3.30
2023-04-27T00:51:56.293Z,3.30
2023-04-27T00:54:23.682Z,3.30
2023-04-27T00:56:51.754Z,3.20
2023-04-27T00:59:21.852Z,3.20
2023-04-27T01:01:49.907Z,3.10
2023-04-27T01:04:18.077Z,3.10
2023-04-27T01:06:45.657Z,3.10
2023-04-27T01:09:13.633Z,3.10
2023-04-27T01:11:40.713Z,3.10
2023-04-27T01:14:07.954Z,3.00
2023-04-27T01:16:35.351Z,3.00
2023-04-27T01:19:02.156Z,3.00
2023-04-27T01:21:29.927Z,2.90
2023-04-27T01:23:56.796Z,2.90
2023-04-27T01:26:24.843Z,2.90
2023-04-27T01:28:51.530Z,2.90
2023-04-27T01:31:24.192Z,2.90
2023-04-27T01:33:54.234Z,2.90
2023-04-27T01:36:24.112Z,2.90
2023-04-27T01:38:51.604Z,2.90
2023-04-27T01:41:20.599Z,2.90
2023-04-27T01:43:47.537Z,2.80
2023-04-27T01:46:20.671Z,2.80
2023-04-27T01:48:47.545Z,2.70
2023-04-27T01:51:15.149Z,2.70
2023-04-27T01:53:43.544Z,2.70
2023-04-27T01:56:10.434Z,2.70
2023-04-27T01:58:37.274Z,2.70
2023-04-27T02:01:04.331Z,2.60
2023-04-27T02:03:34.386Z,2.70
2023-04-27T02:06:02.502Z,2.60
2023-04-27T02:08:29.498Z,2.60
2023-04-27T02:10:56.206Z,2.60
2023-04-27T02:13:23.032Z,2.50
2023-04-27T02:15:49.971Z,2.50
2023-04-27T02:18:22.547Z,2.50
2023-04-27T02:20:49.292Z,2.50
2023-04-27T02:23:17.260Z,2.50
2023-04-27T02:25:47.097Z,2.40
2023-04-27T02:28:14.626Z,2.40
2023-04-27T02:30:45.162Z,2.40
2023-04-27T02:33:11.963Z,2.40
2023-04-27T02:35:40.104Z,2.40
2023-04-27T02:38:09.014Z,2.40
2023-04-27T02:40:35.918Z,2.30
2023-04-27T02:43:02.706Z,2.30
2023-04-27T02:45:31.664Z,2.30
2023-04-27T02:47:58.636Z,2.30
2023-04-27T02:50:26.692Z,2.20
2023-04-27T02:52:55.398Z,2.20
2023-04-27T02:55:22.441Z,2.20
2023-04-27T02:57:50.314Z,2.10
2023-04-27T03:00:18.967Z,2.10
2023-04-27T03:02:46.172Z,2.10
2023-04-27T03:05:13.000Z,2.10
2023-04-27T03:07:40.021Z,2.00
2023-04-27T03:10:08.381Z,2.00
2023-04-27T03:12:36.616Z,2.00
2023-04-27T03:15:06.104Z,2.00
2023-04-27T03:17:33.871Z,2.00
2023-04-27T03:20:00.810Z,2.00
2023-04-27T03:22:27.668Z,2.00
2023-04-27T03:24:54.489Z,2.00
2023-04-27T03:27:21.342Z,1.90
2023-04-27T03:29:53.590Z,1.90
2023-04-27T03:32:20.644Z,2.00
2023-04-27T03:34:47.451Z,2.00
2023-04-27T03:37:15.715Z,2.00
2023-04-27T03:39:45.189Z,2.00
2023-04-27T03:42:16.290Z,2.00
2023-04-27T03:44:43.016Z,2.10
2023-04-27T03:47:10.972Z,2.10
2023-04-27T03:49:38.905Z,2.10
2023-04-27T03:52:05.926Z,2.10
2023-04-27T03:54:32.910Z,2.10
2023-04-27T03:56:59.745Z,2.10
2023-04-27T03:59:30.089Z,2.20
2023-04-27T04:01:59.544Z,2.30
2023-04-27T04:04:28.220Z,2.30
2023-04-27T04:06:56.362Z,2.40
2023-04-27T04:09:24.200Z,2.40
2023-04-27T04:11:52.486Z,2.50
2023-04-27T04:14:20.395Z,2.60
2023-04-27T04:16:47.418Z,2.70
2023-04-27T04:19:15.511Z,2.70
2023-04-27T04:21:43.672Z,2.80
2023-04-27T04:24:11.126Z,2.90
2023-04-27T04:26:45.030Z,2.90
2023-04-27T04:29:14.107Z,3.00
2023-04-27T04:31:44.356Z,3.10
2023-04-27T04:34:11.311Z,3.20
2023-04-27T04:36:38.163Z,3.20
2023-04-27T04:39:05.725Z,3.30
2023-04-27T04:41:33.202Z,3.40
2023-04-27T04:44:01.210Z,3.50
2023-04-27T04:46:34.082Z,3.60
2023-04-27T04:49:02.468Z,3.60
2023-04-27T04:51:29.333Z,3.70
2023-04-27T04:53:56.613Z,3.80
2023-04-27T04:56:25.735Z,3.90
2023-04-27T04:58:52.600Z,4.00
2023-04-27T05:01:25.317Z,4.10
2023-04-27T05:03:53.310Z,4.10
2023-04-27T05:06:23.622Z,4.20
2023-04-27T05:08:50.423Z,4.30
2023-04-27T05:11:17.329Z,4.40
2023-04-27T05:13:44.210Z,4.50
2023-04-27T05:16:12.808Z,4.60
2023-04-27T05:18:39.659Z,4.70
2023-04-27T05:21:13.149Z,4.70
2023-04-27T05:23:40.981Z,4.90
2023-04-27T05:26:18.153Z,5.00
2023-04-27T05:28:47.076Z,5.10
2023-04-27T05:31:15.043Z,5.20
2023-04-27T05:33:43.978Z,5.20
2023-04-27T05:36:11.062Z,5.30
2023-04-27T05:38:40.321Z,5.40
2023-04-27T05:41:07.914Z,5.50
2023-04-27T05:43:40.825Z,5.50
2023-04-27T05:46:09.056Z,5.60
2023-04-27T05:48:36.193Z,5.70
2023-04-27T05:51:04.568Z,5.70
2023-04-27T05:53:33.745Z,5.80
2023-04-27T05:56:01.700Z,5.90
2023-04-27T05:58:31.988Z,5.90
2023-04-27T06:01:06.140Z,6.00
2023-04-27T06:03:33.516Z,6.10
2023-04-27T06:06:02.162Z,6.20
2023-04-27T06:08:29.795Z,6.30
2023-04-27T06:10:57.755Z,6.40
2023-04-27T06:13:27.013Z,6.50
2023-04-27T06:15:56.300Z,6.60
2023-04-27T06:18:23.213Z,6.70
2023-04-27T06:20:49.934Z,6.80
2023-04-27T06:23:17.972Z,6.90
2023-04-27T06:25:46.279Z,7.00
2023-04-27T06:28:13.001Z,7.10
2023-04-27T06:30:39.941Z,7.10
2023-04-27T06:33:06.699Z,7.20
2023-04-27T06:35:33.449Z,7.30
2023-04-27T06:38:00.863Z,7.30
2023-04-27T06:40:28.724Z,7.30
2023-04-27T06:42:55.503Z,7.30
2023-04-27T06:45:22.264Z,7.30
2023-04-27T06:47:49.024Z,7.30
2023-04-27T06:50:16.936Z,7.20
2023-04-27T06:52:43.779Z,7.30
2023-04-27T06:55:10.651Z,7.30
2023-04-27T06:57:38.487Z,7.40
2023-04-27T07:00:05.925Z,7.50
2023-04-27T07:02:32.733Z,7.60
2023-04-27T07:04:59.601Z,7.70
2023-04-27T07:07:26.408Z,7.70
2023-04-27T07:09:53.447Z,7.70
2023-04-27T07:12:20.322Z,7.70
2023-04-27T07:14:47.158Z,7.70
2023-04-27T07:17:13.862Z,7.70
2023-04-27T07:19:40.712Z,7.90
2023-04-27T07:22:07.450Z,7.90
2023-04-27T07:24:34.177Z,8.00
2023-04-27T07:27:03.687Z,8.10
2023-04-27T07:29:30.940Z,8.20
2023-04-27T07:31:58.941Z,8.20
2023-04-27T07:34:25.655Z,8.30
2023-04-27T07:36:54.550Z,8.30
2023-04-27T07:39:21.528Z,8.40
2023-04-27T07:41:48.469Z,8.40
2023-04-27T07:44:15.389Z,8.50
2023-04-27T07:46:42.352Z,8.50
2023-04-27T07:49:09.118Z,8.60
2023-04-27T07:51:36.353Z,8.60
2023-04-27T07:54:04.214Z,8.70
2023-04-27T07:56:31.085Z,8.80
2023-04-27T07:58:57.838Z,9.00
2023-04-27T08:01:24.906Z,9.00
2023-04-27T08:03:51.970Z,9.10
2023-04-27T08:06:19.793Z,9.20
2023-04-27T08:08:46.860Z,9.20
2023-04-27T08:11:13.727Z,9.30
2023-04-27T08:13:41.495Z,9.40
2023-04-27T08:16:08.313Z,9.50
2023-04-27T08:18:35.054Z,9.60
2023-04-27T08:21:01.818Z,9.80
2023-04-27T08:23:29.252Z,9.80
2023-04-27T08:25:56.046Z,10.00
2023-04-27T08:28:23.486Z,10.10
2023-04-27T08:30:50.513Z,10.30
2023-04-27T08:33:17.237Z,10.40
2023-04-27T08:35:43.950Z,10.40
2023-04-27T08:38:10.685Z,10.30
2023-04-27T08:40:43.519Z,10.40
2023-04-27T08:43:10.301Z,10.60
2023-04-27T08:45:37.585Z,10.70
2023-04-27T08:48:04.782Z,10.80
2023-04-27T08:50:31.589Z,11.00
2023-04-27T08:52:58.566Z,11.10
2023-04-27T08:55:25.655Z,10.90
2023-04-27T08:58:00.411Z,10.80
2023-04-27T09:00:27.840Z,10.60
2023-04-27T09:02:54.750Z,10.50
2023-04-27T09:05:23.738Z,10.30
2023-04-27T09:08:16.880Z,10.10
2023-04-27T09:10:49.005Z,10.20
2023-04-27T09:13:16.264Z,10.30
2023-04-27T09:15:48.674Z,10.50
2023-04-27T09:18:17.685Z,10.60
2023-04-27T09:20:49.190Z,10.60
2023-04-27T09:23:31.675Z,10.60
2023-04-27T09:26:00.100Z,10.60
2023-04-27T09:28:28.360Z,10.80
2023-04-27T09:30:56.480Z,11.00
2023-04-27T09:33:31.276Z,11.00
2023-04-27T09:36:00.546Z,11.20
2023-04-27T09:38:27.548Z,11.30
2023-04-27T09:40:54.928Z,11.40
2023-04-27T09:43:24.062Z,11.40
2023-04-27T09:45:51.571Z,11.30
2023-04-27T09:48:18.844Z,11.10
2023-04-27T09:50:46.930Z,10.90
2023-04-27T09:53:20.846Z,10.70
2023-04-27T09:56:02.496Z,10.60
2023-04-27T09:59:10.670Z,10.30
2023-04-27T10:01:43.723Z,10.00
2023-04-27T10:04:20.554Z,9.90
2023-04-27T10:07:01.276Z,9.80
2023-04-27T10:09:35.716Z,9.70
2023-04-27T10:12:27.514Z,9.70
2023-04-27T10:14:56.448Z,9.70
2023-04-27T10:17:33.881Z,9.70
2023-04-27T10:20:02.038Z,9.70
2023-04-27T10:22:46.276Z,9.90
2023-04-27T10:25:25.554Z,9.90
2023-04-27T10:27:58.884Z,10.00
2023-04-27T10:30:37.819Z,10.00
2023-04-27T10:33:09.437Z,9.90
2023-04-27T10:35:39.219Z,10.00
2023-04-27T10:38:14.889Z,10.20
2023-04-27T10:40:43.756Z,10.30
2023-04-27T10:43:14.647Z,10.40
2023-04-27T10:45:42.468Z,10.40
2023-04-27T10:48:12.932Z,10.30
2023-04-27T10:50:40.497Z,10.30
2023-04-27T10:53:08.674Z,10.20
2023-04-27T10:55:36.151Z,10.20
2023-04-27T10:58:04.540Z,10.20
2023-04-27T11:00:37.602Z,10.20
2023-04-27T11:03:14.928Z,10.40
2023-04-27T11:05:46.836Z,10.50
2023-04-27T11:08:16.782Z,10.50
2023-04-27T11:10:50.007Z,10.50
2023-04-27T11:13:24.941Z,10.50
2023-04-27T11:15:57.815Z,10.60
2023-04-27T11:18:31.821Z,10.70
2023-04-27T11:21:18.848Z,10.80
2023-04-27T11:23:46.149Z,10.90
2023-04-27T11:26:18.191Z,10.90
2023-04-27T11:29:05.461Z,11.00
2023-04-27T11:31:51.181Z,11.00
2023-04-27T11:34:27.383Z,11.10
2023-04-27T11:37:17.325Z,11.10
2023-04-27T11:39:45.851Z,11.20
2023-04-27T11:42:20.975Z,11.30
2023-04-27T11:45:02.431Z,11.40
2023-04-27T11:47:31.552Z,11.50
2023-04-27T11:50:01.753Z,11.50
2023-04-27T11:52:36.321Z,11.60
2023-04-27T11:55:05.015Z,11.60
2023-04-27T11:57:36.067Z,11.50
2023-04-27T12:00:11.331Z,11.60
2023-04-27T12:02:42.138Z,11.90
2023-04-27T12:05:13.166Z,12.20
2023-04-27T12:07:42.226Z,12.50
2023-04-27T12:10:11.844Z,12.60
2023-04-27T12:12:38.806Z,12.70
2023-04-27T12:15:07.369Z,12.80
2023-04-27T12:17:34.284Z,12.90
2023-04-27T12:20:01.087Z,12.90
2023-04-27T12:22:28.833Z,13.00
2023-04-27T12:24:56.025Z,13.10
2023-04-27T12:27:23.360Z,13.10
2023-04-27T12:29:50.238Z,13.00
2023-04-27T12:32:17.132Z,12.90
2023-04-27T12:34:44.202Z,12.70
2023-04-27T12:37:12.219Z,12.50
2023-04-27T12:39:39.951Z,12.20
2023-04-27T12:42:06.821Z,12.00
2023-04-27T12:44:34.597Z,11.90
2023-04-27T12:47:02.526Z,11.80
2023-04-27T12:49:29.485Z,11.80
2023-04-27T12:51:58.031Z,11.90
2023-04-27T12:54:25.012Z,12.00
2023-04-27T12:56:52.330Z,11.90
2023-04-27T12:59:19.315Z,11.90
2023-04-27T13:01:46.318Z,11.80
2023-04-27T13:04:21.166Z,11.60
2023-04-27T13:06:48.808Z,11.50
2023-04-27T13:09:17.062Z,11.40
2023-04-27T13:11:44.008Z,11.40
2023-04-27T13:14:13.144Z,11.30
2023-04-27T13:16:41.733Z,11.20
2023-04-27T13:19:08.913Z,11.10
2023-04-27T13:21:35.726Z,11.10
2023-04-27T13:24:04.147Z,11.10
2023-04-27T13:26:32.218Z,11.10
2023-04-27T13:28:59.131Z,11.10
2023-04-27T13:31:26.196Z,11.00
2023-04-27T13:33:53.843Z,11.00
2023-04-27T13:36:21.608Z,11.00
2023-04-27T13:38:49.557Z,11.10
2023-04-27T13:41:16.819Z,11.30
2023-04-27T13:43:44.729Z,11.50
2023-04-27T13:46:13.792Z,11.70
2023-04-27T13:48:42.598Z,11.90
2023-04-27T13:51:10.180Z,12.10
2023-04-27T13:53:37.178Z,12.10
2023-04-27T13:56:04.237Z,12.20
2023-04-27T13:58:32.255Z,12.10
2023-04-27T14:01:00.391Z,11.90
2023-04-27T14:03:29.913Z,11.70
2023-04-27T14:05:57.921Z,11.60
2023-04-27T14:08:24.796Z,11.40
2023-04-27T14:10:51.616Z,11.30
2023-04-27T14:13:18.781Z,11.20
2023-04-27T14:15:46.856Z,11.20
2023-04-27T14:18:13.781Z,11.30
2023-04-27T14:20:42.182Z,11.20
2023-04-27T14:23:11.602Z,11.20
2023-04-27T14:25:39.900Z,11.40
2023-04-27T14:28:06.830Z,11.50
2023-04-27T14:30:35.860Z,11.60
2023-04-27T14:33:03.176Z,12.00
2023-04-27T14:35:30.401Z,12.40
2023-04-27T14:38:02.450Z,12.60
2023-04-27T14:40:30.506Z,12.90
2023-04-27T14:42:58.830Z,12.90
2023-04-27T14:45:30.918Z,13.10
2023-04-27T14:48:04.173Z,13.40
2023-04-27T14:50:32.500Z,13.40
2023-04-27T14:52:59.409Z,13.40
2023-04-27T14:55:26.743Z,13.20
2023-04-27T14:57:53.664Z,12.70
2023-04-27T15:00:20.697Z,12.30
2023-04-27T15:02:53.757Z,12.00
2023-04-27T15:05:20.711Z,11.50
2023-04-27T15:07:47.561Z,11.20
2023-04-27T15:10:14.274Z,11.00
2023-04-27T15:12:41.834Z,10.80
2023-04-27T15:15:10.332Z,10.60
2023-04-27T15:17:37.733Z,10.50
2023-04-27T15:20:05.916Z,10.40
2023-04-27T15:22:32.955Z,10.30
2023-04-27T15:24:59.843Z,10.30
2023-04-27T15:27:26.999Z,10.20
2023-04-27T15:29:54.979Z,10.20
2023-04-27T15:32:24.576Z,10.20
2023-04-27T15:34:51.889Z,10.20
2023-04-27T15:37:18.857Z,10.20
2023-04-27T15:39:45.744Z,10.20
2023-04-27T15:42:12.432Z,10.20
2023-04-27T15:44:39.178Z,10.20
2023-04-27T15:47:06.416Z,10.20
2023-04-27T15:49:39.912Z,10.10
2023-04-27T15:52:13.017Z,10.10
2023-04-27T15:54:39.870Z,10.10
2023-04-27T15:57:06.667Z,10.00
2023-04-27T15:59:33.448Z,10.00
2023-04-27T16:02:00.223Z,10.00
2023-04-27T16:04:27.113Z,10.00
2023-04-27T16:06:54.622Z,10.00
2023-04-27T16:09:22.884Z,9.90
2023-04-27T16:11:49.665Z,9.90
2023-04-27T16:14:16.644Z,9.80
2023-04-27T16:16:43.552Z,9.80
2023-04-27T16:19:10.359Z,9.80
2023-04-27T16:21:37.138Z,9.90
2023-04-27T16:24:03.978Z,9.90
2023-04-27T16:26:32.914Z,10.00
2023-04-27T16:28:59.657Z,10.00
2023-04-27T16:31:26.454Z,10.10
2023-04-27T16:33:53.573Z,10.20
2023-04-27T16:36:22.638Z,10.30
2023-04-27T16:38:49.350Z,10.30
2023-04-27T16:41:16.098Z,10.50
2023-04-27T16:43:42.787Z,10.50
2023-04-27T16:46:10.666Z,10.50
2023-04-27T16:48:37.516Z,10.60
2023-04-27T16:51:04.481Z,10.60
2023-04-27T16:53:31.292Z,10.70
2023-04-27T16:56:01.330Z,10.70
2023-04-27T16:58:33.371Z,10.70
2023-04-27T17:01:00.268Z,10.70
2023-04-27T17:03:27.254Z,10.60
2023-04-27T17:05:54.128Z,10.60
2023-04-27T17:08:20.956Z,10.50
2023-04-27T17:10:47.723Z,10.30
2023-04-27T17:13:16.406Z,10.20
2023-04-27T17:15:43.226Z,10.10
2023-04-27T17:18:10.484Z,10.00
2023-04-27T17:20:38.787Z,10.00
2023-04-27T17:23:07.018Z,9.90
2023-04-27T17:25:33.732Z,9.90
2023-04-27T17:28:01.689Z,9.80
2023-04-27T17:30:28.683Z,9.70
2023-04-27T17:32:55.388Z,9.70
2023-04-27T17:35:22.249Z,9.70
2023-04-27T17:37:49.031Z,9.60
2023-04-27T17:40:20.551Z,9.60
2023-04-27T17:42:47.667Z,9.60
2023-04-27T17:45:14.748Z,9.50
2023-04-27T17:47:41.517Z,9.40
2023-04-27T17:50:09.396Z,9.40
2023-04-27T17:52:36.101Z,9.30
2023-04-27T17:55:03.003Z,9.30
2023-04-27T17:57:29.758Z,9.20
2023-04-27T17:59:56.456Z,9.20
2023-04-27T18:02:23.390Z,9.10
2023-04-27T18:04:50.245Z,9.10
2023-04-27T18:07:19.265Z,9.00
2023-04-27T18:09:45.988Z,9.00
2023-04-27T18:12:12.905Z,8.90
2023-04-27T18:14:39.671Z,8.90
2023-04-27T18:17:06.501Z,8.90
2023-04-27T18:19:33.421Z,8.90
2023-04-27T18:22:00.390Z,8.80
2023-04-27T18:24:27.114Z,8.70
2023-04-27T18:26:53.821Z,8.70
2023-04-27T18:29:20.602Z,8.60
2023-04-27T18:31:47.545Z,8.60
2023-04-27T18:34:14.475Z,8.50
2023-04-27T18:36:41.233Z,8.50
2023-04-27T18:39:08.167Z,8.50
2023-04-27T18:41:34.870Z,8.40
2023-04-27T18:44:05.767Z,8.40
2023-04-27T18:46:33.517Z,8.30
2023-04-27T18:49:01.267Z,8.30
2023-04-27T18:51:28.837Z,8.30
2023-04-27T18:53:56.143Z,8.30
2023-04-27T18:56:22.966Z,8.30
2023-04-27T18:58:50.011Z,8.30
2023-04-27T19:01:22.130Z,8.30
2023-04-27T19:03:49.455Z,8.20
2023-04-27T19:06:18.783Z,8.20
2023-04-27T19:08:46.479Z,8.20
2023-04-27T19:11:16.556Z,8.10
2023-04-27T19:13:45.117Z,8.00
2023-04-27T19:16:12.708Z,8.00
2023-04-27T19:18:40.637Z,7.90
2023-04-27T19:21:09.957Z,7.90
2023-04-27T19:23:36.901Z,7.90
2023-04-27T19:26:12.375Z,7.80
2023-04-27T19:28:40.228Z,7.80
2023-04-27T19:31:07.632Z,7.80
2023-04-27T19:33:34.553Z,7.80
2023-04-27T19:36:01.505Z,7.70
2023-04-27T19:38:28.493Z,7.70
2023-04-27T19:40:55.327Z,7.60
2023-04-27T19:43:22.367Z,7.70
2023-04-27T19:45:49.507Z,7.60
2023-04-27T19:48:16.612Z,7.60
2023-04-27T19:50:44.455Z,7.60
2023-04-27T19:53:11.411Z,7.60
2023-04-27T19:55:40.484Z,7.50
2023-04-27T19:58:07.538Z,7.50
2023-04-27T20:00:34.476Z,7.60
2023-04-27T20:03:02.665Z,7.60
2023-04-27T20:05:29.924Z,7.50
2023-04-27T20:07:56.819Z,7.50
2023-04-27T20:10:23.753Z,7.50
2023-04-27T20:12:56.537Z,7.50
2023-04-27T20:15:24.394Z,7.50
2023-04-27T20:17:51.917Z,7.40
2023-04-27T20:20:19.305Z,7.30
2023-04-27T20:22:46.147Z,7.30
2023-04-27T20:25:14.610Z,7.30
2023-04-27T20:27:42.042Z,7.20
2023-04-27T20:30:10.315Z,7.20
2023-04-27T20:32:39.443Z,7.20
2023-04-27T20:35:11.582Z,7.10
2023-04-27T20:37:40.069Z,7.10
2023-04-27T20:40:12.564Z,7.00
2023-04-27T20:42:40.858Z,6.90
2023-04-27T20:45:11.280Z,6.90
2023-04-27T20:47:38.262Z,6.80
2023-04-27T20:50:06.363Z,6.70
2023-04-27T20:52:34.591Z,6.70
2023-04-27T20:55:05.356Z,6.60
2023-04-27T20:57:32.493Z,6.60
2023-04-27T20:59:59.510Z,6.50
2023-04-27T21:02:26.528Z,6.50
2023-04-27T21:04:53.617Z,6.40
2023-04-27T21:07:20.945Z,6.40
2023-04-27T21:09:47.904Z,6.30
2023-04-27T21:12:17.156Z,6.30
2023-04-27T21:14:44.458Z,6.20
2023-04-27T21:17:15.108Z,6.10
2023-04-27T21:19:42.217Z,6.10
2023-04-27T21:22:09.180Z,6.10
2023-04-27T21:24:36.281Z,6.00
2023-04-27T21:27:03.471Z,6.00
2023-04-27T21:29:30.492Z,6.00
2023-04-27T21:31:57.310Z,5.90
2023-04-27T21:34:24.182Z,5.90
2023-04-27T21:36:51.044Z,5.90
2023-04-27T21:39:23.772Z,5.80
2023-04-27T21:41:51.875Z,5.80
2023-04-27T21:44:18.655Z,5.80
2023-04-27T21:46:46.781Z,5.80
2023-04-27T21:49:13.820Z,5.70
2023-04-27T21:51:40.776Z,5.70
2023-04-27T21:54:07.819Z,5.70
2023-04-27T21:56:35.620Z,5.60
2023-04-27T21:59:02.456Z,5.60
2023-04-27T22:01:34.548Z,5.50
2023-04-27T22:04:04.140Z,5.60
2023-04-27T22:06:33.427Z,5.50
2023-04-27T22:09:00.884Z,5.50
2023-04-27T22:11:27.703Z,5.50
2023-04-27T22:13:56.645Z,5.50
2023-04-27T22:16:30.794Z,5.50
2023-04-27T22:18:57.899Z,5.40
2023-04-27T22:21:25.068Z,5.40
2023-04-27T22:23:53.113Z,5.40
2023-04-27T22:26:20.149Z,5.30
2023-04-27T22:28:47.960Z,5.30
2023-04-27T22:31:17.867Z,5.30
2023-04-27T22:33:44.720Z,5.30
2023-04-27T22:36:12.085Z,5.30
2023-04-27T22:38:39.178Z,5.30
2023-04-27T22:41:06.086Z,5.30
2023-04-27T22:43:33.027Z,5.20
2023-04-27T22:46:01.012Z,5.20
2023-04-27T22:48:30.133Z,5.20
2023-04-27T22:50:58.072Z,5.20
2023-04-27T22:53:26.245Z,5.20
2023-04-27T22:55:53.198Z,5.20
2023-04-27T22:58:21.016Z,5.10
2023-04-27T23:00:50.009Z,5.10
2023-04-27T23:03:18.387Z,5.10
2023-04-27T23:05:53.621Z,5.00
2023-04-27T23:08:24.816Z,5.00
2023-04-27T23:10:56.233Z,4.90
2023-04-27T23:13:29.993Z,4.90
2023-04-27T23:15:58.963Z,4.90
2023-04-27T23:18:25.884Z,4.80
2023-04-27T23:20:54.712Z,4.70
2023-04-27T23:23:22.158Z,4.70
2023-04-27T23:25:49.313Z,4.70
2023-04-27T23:28:16.668Z,4.70
2023-04-27T23:30:55.277Z,4.60
2023-04-27T23:33:24.356Z,4.60
2023-04-27T23:35:51.478Z,4.60
2023-04-27T23:38:19.307Z,4.50
2023-04-27T23:40:47.066Z,4.50
2023-04-27T23:43:13.914Z,4.50
2023-04-27T23:45:40.893Z,4.40
2023-04-27T23:48:09.060Z,4.40
2023-04-27T23:50:35.991Z,4.30
2023-04-27T23:53:03.817Z,4.30
2023-04-27T23:55:34.868Z,4.30
2023-04-27T23:58:01.969Z,4.30
